Terminal Aerodrome Forecast
Issued by NWS Quad Cities IA IL

Home | Current Version | Previous Version | Text Only | Print | Product List | Glossary On
Versions: 1 2 3 4 5 6 7 8 9 10 11 12 13 14 15 16 17 18 19 20 21
520
FTUS43 KDVN 101124
TAFMLI
TAF
KMLI 101124Z 1012/1112 22011G17KT P6SM SKC
     FM101730 31012G19KT P6SM SCT030
     FM110000 29004KT P6SM SKC
     FM110700 17005KT P6SM SCT250=

USA.gov is the U.S. government's official web portal to all federal, state and local government web resources and services.